createdAt,value
2023-08-24T00:01:17.735Z,3.60
2023-08-24T00:03:47.736Z,3.75
2023-08-24T00:06:14.437Z,4.35
2023-08-24T00:08:41.157Z,5.28
2023-08-24T00:11:08.922Z,2.95
2023-08-24T00:13:35.908Z,3.95
2023-08-24T00:16:02.629Z,4.43
2023-08-24T00:18:29.276Z,4.68
2023-08-24T00:20:55.877Z,4.70
2023-08-24T00:23:22.527Z,4.13
2023-08-24T00:25:49.135Z,4.68
2023-08-24T00:28:16.062Z,4.50
2023-08-24T00:30:42.696Z,4.88
2023-08-24T00:33:09.399Z,3.15
2023-08-24T00:35:36.099Z,3.80
2023-08-24T00:38:03.442Z,4.10
2023-08-24T00:40:30.059Z,4.13
2023-08-24T00:42:56.914Z,4.20
2023-08-24T00:45:23.786Z,4.40
2023-08-24T00:47:51.318Z,8.35
2023-08-24T00:50:19.148Z,5.10
2023-08-24T00:52:47.944Z,4.65
2023-08-24T00:55:15.595Z,4.35
2023-08-24T00:57:43.121Z,5.40
2023-08-24T01:00:11.753Z,4.35
2023-08-24T01:02:39.474Z,6.10
2023-08-24T01:05:07.816Z,5.43
2023-08-24T01:07:37.272Z,3.85
2023-08-24T01:10:07.389Z,5.90
2023-08-24T01:12:44.787Z,4.72
2023-08-24T01:15:17.178Z,4.18
2023-08-24T01:17:45.205Z,5.30
2023-08-24T01:20:14.756Z,5.10
2023-08-24T01:23:10.264Z,4.90
2023-08-24T01:25:47.010Z,4.57
2023-08-24T01:28:15.929Z,5.32
2023-08-24T01:30:44.287Z,4.70
2023-08-24T01:33:13.294Z,3.95
2023-08-24T01:35:41.149Z,5.07
2023-08-24T01:38:08.887Z,4.57
2023-08-24T01:41:03.824Z,3.15
2023-08-24T01:43:43.846Z,4.40
2023-08-24T01:46:16.076Z,4.70
2023-08-24T01:48:45.078Z,4.28
2023-08-24T01:51:13.039Z,5.38
2023-08-24T01:53:40.985Z,6.80
2023-08-24T01:56:16.090Z,3.38
2023-08-24T01:58:42.859Z,3.38
2023-08-24T02:01:10.345Z,3.22
2023-08-24T02:03:37.442Z,5.70
2023-08-24T02:06:06.033Z,3.10
2023-08-24T02:08:32.673Z,3.95
2023-08-24T02:10:59.342Z,3.58
2023-08-24T02:13:25.986Z,4.47
2023-08-24T02:16:10.071Z,4.28
2023-08-24T02:18:37.274Z,3.45
2023-08-24T02:21:13.060Z,5.70
2023-08-24T02:23:40.226Z,4.18
2023-08-24T02:26:07.158Z,3.63
2023-08-24T02:28:34.767Z,3.90
2023-08-24T02:31:02.855Z,3.95
2023-08-24T02:33:29.505Z,4.13
2023-08-24T02:35:56.394Z,6.35
2023-08-24T02:38:24.772Z,3.88
2023-08-24T02:41:02.730Z,5.07
2023-08-24T02:46:09.453Z,3.67
2023-08-24T02:48:36.911Z,4.65
2023-08-24T02:51:05.859Z,4.22
2023-08-24T02:53:32.922Z,4.43
2023-08-24T02:56:00.976Z,3.90
2023-08-24T02:58:28.306Z,4.78
2023-08-24T03:00:55.298Z,3.85
2023-08-24T03:03:25.529Z,4.00
2023-08-24T03:05:58.836Z,5.15
2023-08-24T03:08:28.086Z,6.35
2023-08-24T03:10:54.955Z,4.40
2023-08-24T03:13:21.708Z,6.38
2023-08-24T03:15:48.489Z,3.90
2023-08-24T03:18:17.132Z,4.78
2023-08-24T03:20:46.027Z,4.13
2023-08-24T03:23:14.672Z,3.70
2023-08-24T03:25:43.149Z,4.15
2023-08-24T03:28:10.937Z,2.97
2023-08-24T03:30:40.536Z,3.88
2023-08-24T03:33:08.431Z,3.75
2023-08-24T03:35:35.369Z,3.45
2023-08-24T03:38:02.294Z,3.30
2023-08-24T03:40:29.033Z,5.20
2023-08-24T03:42:55.743Z,3.40
2023-08-24T03:45:23.283Z,4.40
2023-08-24T03:47:50.658Z,5.53
2023-08-24T03:50:18.166Z,3.65
2023-08-24T03:52:44.810Z,4.60
2023-08-24T03:55:11.622Z,3.40
2023-08-24T03:57:39.197Z,3.30
2023-08-24T04:00:12.980Z,5.45
2023-08-24T04:02:43.573Z,4.38
2023-08-24T04:05:15.216Z,3.17
2023-08-24T04:07:43.060Z,3.15
2023-08-24T04:10:10.438Z,4.03
2023-08-24T04:12:37.147Z,4.18
2023-08-24T04:15:04.480Z,3.60
2023-08-24T04:17:31.148Z,3.67
2023-08-24T04:19:57.871Z,3.60
2023-08-24T04:22:24.584Z,7.18
2023-08-24T04:24:51.346Z,3.53
2023-08-24T04:27:18.268Z,3.33
2023-08-24T04:29:45.048Z,4.82
2023-08-24T04:32:11.791Z,4.63
2023-08-24T04:34:38.433Z,3.50
2023-08-24T04:37:07.152Z,4.30
2023-08-24T04:39:33.805Z,8.18
2023-08-24T04:42:00.489Z,6.97
2023-08-24T04:44:27.125Z,6.55
2023-08-24T04:46:53.749Z,5.63
2023-08-24T04:49:20.385Z,6.07
2023-08-24T04:51:47.023Z,7.95
2023-08-24T04:54:13.641Z,9.10
2023-08-24T04:56:40.283Z,8.07
2023-08-24T04:59:08.844Z,6.40
2023-08-24T05:01:35.893Z,7.30
2023-08-24T05:04:02.611Z,7.97
2023-08-24T05:06:29.320Z,8.65
2023-08-24T05:08:56.101Z,11.82
2023-08-24T05:11:30.154Z,7.03
2023-08-24T05:13:57.221Z,9.70
2023-08-24T05:16:24.434Z,7.68
2023-08-24T05:18:51.145Z,6.70
2023-08-24T05:21:17.816Z,9.02
2023-08-24T05:23:44.479Z,7.60
2023-08-24T05:26:11.298Z,10.43
2023-08-24T05:28:38.236Z,6.50
2023-08-24T05:31:04.947Z,7.43
2023-08-24T05:33:32.274Z,8.18
2023-08-24T05:35:59.938Z,9.68
2023-08-24T05:38:27.077Z,6.35
2023-08-24T05:40:53.834Z,6.60
2023-08-24T05:43:21.132Z,8.25
2023-08-24T05:45:49.596Z,6.90
2023-08-24T05:48:16.471Z,9.48
2023-08-24T05:50:47.509Z,8.52
2023-08-24T05:53:14.992Z,11.30
2023-08-24T05:55:41.641Z,6.80
2023-08-24T05:58:09.916Z,6.95
2023-08-24T06:00:36.701Z,7.72
2023-08-24T06:03:04.268Z,7.60
2023-08-24T06:05:32.256Z,7.32
2023-08-24T06:07:59.222Z,6.18
2023-08-24T06:10:27.940Z,7.05
2023-08-24T06:12:54.902Z,6.63
2023-08-24T06:15:24.807Z,7.28
2023-08-24T06:17:52.293Z,10.20
2023-08-24T06:20:20.521Z,8.38
2023-08-24T06:22:47.387Z,7.72
2023-08-24T06:25:14.314Z,8.32
2023-08-24T06:27:41.098Z,7.07
2023-08-24T06:30:08.322Z,6.70
2023-08-24T06:32:34.995Z,7.30
2023-08-24T06:35:01.839Z,8.65
2023-08-24T06:37:28.499Z,8.57
2023-08-24T06:39:55.116Z,6.90
2023-08-24T06:42:22.025Z,7.38
2023-08-24T06:44:51.883Z,5.65
2023-08-24T06:47:18.509Z,14.00
2023-08-24T06:49:46.439Z,20.20
2023-08-24T06:52:13.184Z,12.65
2023-08-24T06:54:40.086Z,7.65
2023-08-24T06:57:06.800Z,7.85
2023-08-24T06:59:33.560Z,9.70
2023-08-24T07:02:00.763Z,7.70
2023-08-24T07:04:28.928Z,7.30
2023-08-24T07:06:55.803Z,9.20
2023-08-24T07:09:22.505Z,10.25
2023-08-24T07:11:49.815Z,9.65
2023-08-24T07:14:16.525Z,9.10
2023-08-24T07:16:43.916Z,9.15
2023-08-24T07:19:10.746Z,7.82
2023-08-24T07:21:37.370Z,9.25
2023-08-24T07:24:04.838Z,7.82
2023-08-24T07:26:31.758Z,8.45
2023-08-24T07:28:59.037Z,6.18
2023-08-24T07:31:25.794Z,6.63
2023-08-24T07:33:52.464Z,8.05
2023-08-24T07:36:19.685Z,7.50
2023-08-24T07:38:48.347Z,8.82
2023-08-24T07:41:15.099Z,7.15
2023-08-24T07:43:41.904Z,7.82
2023-08-24T07:46:09.203Z,7.53
2023-08-24T07:48:36.691Z,7.70
2023-08-24T07:51:03.471Z,9.68
2023-08-24T07:53:30.529Z,8.63
2023-08-24T07:55:58.551Z,6.38
2023-08-24T07:58:26.072Z,7.03
2023-08-24T08:00:53.491Z,6.90
2023-08-24T08:03:21.665Z,7.72
2023-08-24T08:05:48.639Z,6.97
2023-08-24T08:08:15.995Z,7.65
2023-08-24T08:10:43.642Z,7.88
2023-08-24T08:13:13.504Z,9.63
2023-08-24T08:15:40.328Z,7.68
2023-08-24T08:18:07.195Z,8.55
2023-08-24T08:20:33.920Z,7.50
2023-08-24T08:23:00.980Z,9.68
2023-08-24T08:25:27.609Z,7.07
2023-08-24T08:27:54.264Z,7.45
2023-08-24T08:30:21.407Z,7.03
2023-08-24T08:32:48.350Z,6.15
2023-08-24T08:35:15.143Z,7.32
2023-08-24T08:37:41.770Z,6.38
2023-08-24T08:40:11.745Z,6.65
2023-08-24T08:42:38.629Z,8.45
2023-08-24T08:45:10.424Z,7.25
2023-08-24T08:47:37.652Z,6.43
2023-08-24T08:50:05.142Z,6.35
2023-08-24T08:52:33.465Z,9.13
2023-08-24T08:55:00.707Z,5.78
2023-08-24T08:57:27.479Z,7.63
2023-08-24T08:59:54.610Z,5.85
2023-08-24T09:02:24.471Z,5.50
2023-08-24T09:04:52.482Z,6.47
2023-08-24T09:07:19.365Z,7.82
2023-08-24T09:09:45.990Z,4.43
2023-08-24T09:12:12.860Z,4.65
2023-08-24T09:14:40.962Z,5.00
2023-08-24T09:17:07.656Z,5.60
2023-08-24T09:19:39.891Z,5.50
2023-08-24T09:22:08.911Z,4.65
2023-08-24T09:24:37.150Z,6.95
2023-08-24T09:27:17.099Z,5.45
2023-08-24T09:29:43.989Z,6.78
2023-08-24T09:32:10.749Z,4.30
2023-08-24T09:34:38.127Z,4.68
2023-08-24T09:37:05.591Z,6.82
2023-08-24T09:39:32.259Z,6.00
2023-08-24T09:42:05.749Z,4.75
2023-08-24T09:44:32.438Z,6.57
2023-08-24T09:47:00.334Z,4.13
2023-08-24T09:49:29.726Z,4.32
2023-08-24T09:52:01.026Z,6.97
2023-08-24T09:54:29.279Z,4.35
2023-08-24T09:56:59.668Z,5.07
2023-08-24T09:59:28.971Z,5.40
2023-08-24T10:01:58.480Z,5.15
2023-08-24T10:04:27.259Z,4.88
2023-08-24T10:06:58.312Z,4.07
2023-08-24T10:09:33.189Z,4.65
2023-08-24T10:12:02.965Z,3.85
2023-08-24T10:14:45.728Z,7.05
2023-08-24T10:17:14.286Z,7.13
2023-08-24T10:19:43.961Z,7.38
2023-08-24T10:22:12.037Z,5.50
2023-08-24T10:24:38.995Z,4.40
2023-08-24T10:27:09.139Z,6.60
2023-08-24T10:29:35.815Z,4.93
2023-08-24T10:32:04.339Z,3.85
2023-08-24T10:34:31.178Z,4.53
2023-08-24T10:36:58.466Z,3.80
2023-08-24T10:39:29.820Z,5.43
2023-08-24T10:41:56.896Z,6.38
2023-08-24T10:44:35.840Z,4.53
2023-08-24T10:47:17.844Z,5.65
2023-08-24T10:49:59.252Z,4.32
2023-08-24T10:52:31.102Z,4.40
2023-08-24T10:54:57.803Z,4.22
2023-08-24T10:57:28.766Z,4.68
2023-08-24T11:00:00.546Z,4.38
2023-08-24T11:02:27.921Z,4.95
2023-08-24T11:05:08.163Z,5.25
2023-08-24T11:07:34.908Z,4.57
2023-08-24T11:10:12.752Z,5.05
2023-08-24T11:13:04.260Z,4.35
2023-08-24T11:15:32.621Z,5.55
2023-08-24T11:18:23.305Z,4.70
2023-08-24T11:20:52.378Z,5.00
2023-08-24T11:23:20.664Z,5.22
2023-08-24T11:25:49.419Z,4.25
2023-08-24T11:28:20.817Z,4.68
2023-08-24T11:30:48.094Z,5.15
2023-08-24T11:33:15.488Z,4.60
2023-08-24T11:35:46.412Z,6.22
2023-08-24T11:38:13.415Z,5.22
2023-08-24T11:40:40.642Z,4.13
2023-08-24T11:43:07.552Z,4.78
2023-08-24T11:45:37.879Z,5.05
2023-08-24T11:48:08.027Z,6.25
2023-08-24T11:50:37.777Z,4.63
2023-08-24T11:53:07.904Z,5.15
2023-08-24T11:55:34.618Z,5.65
2023-08-24T11:58:01.332Z,5.55
2023-08-24T12:00:28.783Z,6.40
2023-08-24T12:02:55.638Z,5.30
2023-08-24T12:05:27.007Z,5.28
2023-08-24T12:07:54.954Z,6.40
2023-08-24T12:10:22.864Z,4.47
2023-08-24T12:12:50.290Z,7.10
2023-08-24T12:15:19.003Z,4.88
2023-08-24T12:17:46.372Z,4.50
2023-08-24T12:20:23.539Z,5.20
2023-08-24T12:22:56.718Z,5.82
2023-08-24T12:25:24.484Z,8.75
2023-08-24T12:28:17.862Z,5.43
2023-08-24T12:30:52.500Z,5.55
2023-08-24T12:33:27.130Z,6.13
2023-08-24T12:35:55.697Z,4.47
2023-08-24T12:38:27.959Z,8.38
2023-08-24T12:40:55.458Z,6.18
2023-08-24T12:43:22.185Z,6.00
2023-08-24T12:45:49.339Z,9.68
2023-08-24T12:48:16.089Z,6.03
2023-08-24T12:50:42.778Z,6.75
2023-08-24T12:53:09.654Z,6.90
2023-08-24T12:55:39.958Z,5.47
2023-08-24T12:58:07.010Z,7.40
2023-08-24T13:00:33.959Z,7.47
2023-08-24T13:03:01.162Z,8.77
2023-08-24T13:05:27.992Z,7.63
2023-08-24T13:07:54.765Z,6.78
2023-08-24T13:10:21.539Z,7.57
2023-08-24T13:12:48.196Z,5.95
2023-08-24T13:15:16.277Z,5.20
2023-08-24T13:17:43.013Z,5.88
2023-08-24T13:20:09.747Z,5.05
2023-08-24T13:22:36.438Z,5.75
2023-08-24T13:25:03.238Z,5.25
2023-08-24T13:27:30.010Z,5.30
2023-08-24T13:30:01.203Z,5.53
2023-08-24T13:32:28.278Z,6.03
2023-08-24T13:34:55.331Z,5.53
2023-08-24T13:37:22.030Z,6.40
2023-08-24T13:39:48.643Z,6.80
2023-08-24T13:42:15.380Z,6.93
2023-08-24T13:44:42.079Z,6.53
2023-08-24T13:47:09.685Z,7.95
2023-08-24T13:49:40.508Z,5.60
2023-08-24T13:52:08.404Z,6.05
2023-08-24T13:54:35.447Z,6.32
2023-08-24T13:57:02.931Z,6.53
2023-08-24T13:59:29.925Z,5.93
2023-08-24T14:01:56.921Z,6.38
2023-08-24T14:04:23.653Z,5.45
2023-08-24T14:06:50.614Z,6.10
2023-08-24T14:09:17.472Z,5.93
2023-08-24T14:11:44.212Z,4.90
2023-08-24T14:14:11.621Z,6.47
2023-08-24T14:16:38.531Z,6.97
2023-08-24T14:19:05.951Z,8.65
2023-08-24T14:24:04.101Z,6.00
2023-08-24T14:26:30.829Z,6.97
2023-08-24T14:28:59.171Z,6.18
2023-08-24T14:31:27.848Z,8.73
2023-08-24T14:33:55.052Z,8.70
2023-08-24T14:36:22.209Z,7.57
2023-08-24T14:38:49.860Z,6.88
2023-08-24T14:41:16.932Z,6.38
2023-08-24T14:43:43.587Z,8.55
2023-08-24T14:46:10.517Z,7.32
2023-08-24T14:48:37.553Z,6.00
2023-08-24T14:51:04.283Z,7.65
2023-08-24T14:53:31.064Z,7.68
2023-08-24T14:55:58.542Z,7.53
2023-08-24T14:58:26.813Z,8.32
2023-08-24T15:00:56.169Z,6.65
2023-08-24T15:03:24.191Z,7.63
2023-08-24T15:05:59.483Z,8.00
2023-08-24T15:08:26.826Z,8.07
2023-08-24T15:10:57.613Z,7.97
2023-08-24T15:13:25.376Z,9.75
2023-08-24T15:15:54.661Z,8.60
2023-08-24T15:18:21.974Z,8.25
2023-08-24T15:20:48.850Z,8.55
2023-08-24T15:23:26.775Z,8.18
2023-08-24T15:25:58.187Z,8.93
2023-08-24T15:28:25.693Z,7.78
2023-08-24T15:30:52.789Z,8.88
2023-08-24T15:33:20.702Z,7.97
2023-08-24T15:35:48.465Z,11.95
2023-08-24T15:38:15.123Z,9.48
2023-08-24T15:40:44.081Z,14.55
2023-08-24T15:43:12.351Z,10.93
2023-08-24T15:45:39.026Z,10.93
2023-08-24T15:48:06.079Z,11.57
2023-08-24T15:50:32.786Z,10.40
2023-08-24T15:52:59.660Z,10.60
2023-08-24T15:55:29.346Z,11.32
2023-08-24T15:57:56.089Z,10.73
2023-08-24T16:00:22.901Z,26.98
2023-08-24T16:02:49.586Z,8.70
2023-08-24T16:05:16.721Z,7.22
2023-08-24T16:07:43.401Z,9.00
2023-08-24T16:10:10.643Z,12.00
2023-08-24T16:12:37.442Z,8.32
2023-08-24T16:15:05.284Z,9.13
2023-08-24T16:17:32.566Z,9.98
2023-08-24T16:19:59.267Z,9.73
2023-08-24T16:22:25.992Z,17.20
2023-08-24T16:24:52.630Z,9.93
2023-08-24T16:27:19.305Z,8.43
2023-08-24T16:29:45.947Z,8.77
2023-08-24T16:32:12.690Z,9.52
2023-08-24T16:34:40.522Z,9.38
2023-08-24T16:37:07.233Z,6.85
2023-08-24T16:39:33.966Z,9.75
2023-08-24T16:42:00.606Z,10.65
2023-08-24T16:44:27.253Z,11.15
2023-08-24T16:46:53.962Z,9.40
2023-08-24T16:49:21.611Z,9.93
2023-08-24T16:51:48.598Z,7.55
2023-08-24T16:54:15.243Z,7.43
2023-08-24T16:56:42.039Z,8.43
2023-08-24T16:59:08.906Z,9.18
2023-08-24T17:01:35.558Z,10.18
2023-08-24T17:04:02.452Z,9.27
2023-08-24T17:06:31.129Z,10.20
2023-08-24T17:08:58.973Z,8.60
2023-08-24T17:11:25.657Z,7.00
2023-08-24T17:13:54.606Z,7.78
2023-08-24T17:16:21.846Z,7.93
2023-08-24T17:18:48.807Z,7.22
2023-08-24T17:21:16.735Z,6.28
2023-08-24T17:23:43.549Z,7.75
2023-08-24T17:26:10.336Z,6.53
2023-08-24T17:28:37.562Z,6.13
2023-08-24T17:31:05.813Z,4.68
2023-08-24T17:33:35.686Z,6.80
2023-08-24T17:36:03.946Z,5.45
2023-08-24T17:38:32.741Z,5.85
2023-08-24T17:41:03.970Z,5.60
2023-08-24T17:43:31.394Z,5.53
2023-08-24T17:45:58.068Z,5.43
2023-08-24T17:48:24.745Z,5.72
2023-08-24T17:50:56.164Z,5.32
2023-08-24T17:53:28.664Z,5.13
2023-08-24T17:55:56.026Z,4.50
2023-08-24T17:58:23.447Z,5.45
2023-08-24T18:00:51.021Z,4.80
2023-08-24T18:03:18.741Z,6.53
2023-08-24T18:05:45.915Z,4.60
2023-08-24T18:08:13.310Z,4.93
2023-08-24T18:10:40.517Z,5.18
2023-08-24T18:13:07.483Z,4.55
2023-08-24T18:15:38.701Z,4.13
2023-08-24T18:18:06.589Z,5.38
2023-08-24T18:20:34.109Z,8.32
2023-08-24T18:23:01.285Z,5.95
2023-08-24T18:25:28.299Z,5.93
2023-08-24T18:27:55.508Z,5.32
2023-08-24T18:30:22.579Z,5.22
2023-08-24T18:32:49.803Z,4.30
2023-08-24T18:35:16.698Z,5.63
2023-08-24T18:37:43.411Z,4.07
2023-08-24T18:40:10.777Z,5.25
2023-08-24T18:42:38.151Z,5.38
2023-08-24T18:45:08.296Z,6.28
2023-08-24T18:47:35.303Z,6.38
2023-08-24T18:50:02.580Z,3.60
2023-08-24T18:52:30.090Z,5.50
2023-08-24T18:54:59.378Z,3.58
2023-08-24T18:57:26.273Z,5.50
2023-08-24T18:59:53.566Z,5.70
2023-08-24T19:02:22.049Z,5.90
2023-08-24T19:04:50.818Z,5.50
2023-08-24T19:07:18.512Z,5.15
2023-08-24T19:09:45.364Z,4.97
2023-08-24T19:12:12.292Z,4.82
2023-08-24T19:14:39.197Z,3.80
2023-08-24T19:17:06.351Z,5.80
2023-08-24T19:19:33.208Z,4.13
2023-08-24T19:22:00.396Z,3.40
2023-08-24T19:24:27.916Z,6.20
2023-08-24T19:26:54.609Z,3.22
2023-08-24T19:29:21.572Z,4.60
2023-08-24T19:31:48.314Z,4.10
2023-08-24T19:34:15.126Z,5.38
2023-08-24T19:36:41.770Z,6.82
2023-08-24T19:39:08.705Z,8.10
2023-08-24T19:41:40.954Z,6.30
2023-08-24T19:44:17.100Z,5.85
2023-08-24T19:46:44.528Z,5.82
2023-08-24T19:49:11.254Z,4.25
2023-08-24T19:51:39.500Z,6.78
2023-08-24T19:54:06.550Z,4.90
2023-08-24T19:56:33.591Z,6.07
2023-08-24T19:59:00.611Z,6.43
2023-08-24T20:01:30.363Z,7.53
2023-08-24T20:03:57.854Z,6.75
2023-08-24T20:06:26.641Z,6.82
2023-08-24T20:08:55.192Z,5.88
2023-08-24T20:11:22.324Z,6.85
2023-08-24T20:13:50.480Z,6.28
2023-08-24T20:16:17.349Z,6.95
2023-08-24T20:18:45.097Z,7.55
2023-08-24T20:21:12.078Z,8.05
2023-08-24T20:23:41.763Z,8.20
2023-08-24T20:26:11.510Z,6.40
2023-08-24T20:28:41.241Z,7.50
2023-08-24T20:31:09.314Z,5.40
2023-08-24T20:33:37.457Z,6.90
2023-08-24T20:36:05.645Z,10.38
2023-08-24T20:38:32.682Z,4.80
2023-08-24T20:41:03.770Z,7.65
2023-08-24T20:43:31.486Z,6.50
2023-08-24T20:45:58.343Z,7.57
2023-08-24T20:48:24.998Z,8.13
2023-08-24T20:50:55.779Z,5.90
2023-08-24T20:53:22.455Z,5.47
2023-08-24T20:55:49.141Z,7.97
2023-08-24T20:58:17.469Z,8.43
2023-08-24T21:00:44.149Z,7.32
2023-08-24T21:03:10.922Z,8.25
2023-08-24T21:05:37.605Z,6.68
2023-08-24T21:08:05.118Z,7.43
2023-08-24T21:10:31.759Z,8.90
2023-08-24T21:12:58.719Z,9.30
2023-08-24T21:15:25.374Z,5.95
2023-08-24T21:17:52.326Z,7.07
2023-08-24T21:20:20.847Z,5.82
2023-08-24T21:22:47.503Z,9.23
2023-08-24T21:25:14.715Z,6.75
2023-08-24T21:27:41.505Z,6.80
2023-08-24T21:30:08.702Z,6.45
2023-08-24T21:32:36.753Z,5.80
2023-08-24T21:35:05.148Z,7.43
2023-08-24T21:37:32.912Z,10.73
2023-08-24T21:40:00.462Z,9.55
2023-08-24T21:42:27.510Z,7.18
2023-08-24T21:44:54.285Z,10.02
2023-08-24T21:47:21.659Z,9.10
2023-08-24T21:49:48.682Z,8.25
2023-08-24T21:52:15.883Z,6.65
2023-08-24T21:54:42.954Z,9.27
2023-08-24T21:57:10.647Z,8.45
2023-08-24T21:59:37.373Z,7.70
2023-08-24T22:02:04.456Z,8.73
2023-08-24T22:04:31.496Z,5.97
2023-08-24T22:06:58.780Z,6.43
2023-08-24T22:09:25.597Z,8.48
2023-08-24T22:11:52.275Z,7.57
2023-08-24T22:14:21.322Z,9.00
2023-08-24T22:16:48.054Z,8.23
2023-08-24T22:19:26.128Z,8.55
2023-08-24T22:21:54.177Z,8.00
2023-08-24T22:24:21.520Z,8.45
2023-08-24T22:26:48.257Z,7.85
2023-08-24T22:29:15.037Z,7.82
2023-08-24T22:31:42.794Z,8.68
2023-08-24T22:34:10.418Z,7.30
2023-08-24T22:36:37.344Z,10.30
2023-08-24T22:39:04.613Z,9.07
2023-08-24T22:41:31.700Z,8.27
2023-08-24T22:43:58.470Z,10.50
2023-08-24T22:46:25.635Z,6.97
2023-08-24T22:48:52.330Z,9.77
2023-08-24T22:51:19.868Z,11.98
2023-08-24T22:53:46.564Z,8.52
2023-08-24T22:56:16.914Z,8.70
2023-08-24T22:58:43.700Z,9.48
2023-08-24T23:01:23.593Z,7.50
2023-08-24T23:03:50.620Z,10.98
2023-08-24T23:06:21.480Z,8.18
2023-08-24T23:08:49.722Z,8.15
2023-08-24T23:11:17.371Z,8.00
2023-08-24T23:13:43.993Z,8.95
2023-08-24T23:16:10.984Z,8.55
2023-08-24T23:18:39.101Z,10.05
2023-08-24T23:21:05.926Z,8.35
2023-08-24T23:23:32.855Z,7.55
2023-08-24T23:25:59.727Z,10.50
2023-08-24T23:28:26.811Z,9.45
2023-08-24T23:30:53.603Z,12.15
2023-08-24T23:33:20.449Z,10.75
2023-08-24T23:35:47.675Z,8.88
2023-08-24T23:38:14.322Z,7.80
2023-08-24T23:40:41.782Z,9.73
2023-08-24T23:43:08.410Z,9.25
2023-08-24T23:45:36.632Z,8.30
2023-08-24T23:48:04.196Z,10.98
2023-08-24T23:50:31.403Z,9.23
2023-08-24T23:52:58.691Z,8.50
2023-08-24T23:55:25.751Z,9.63
2023-08-24T23:57:53.955Z,9.80
